sensor_id;sensor_type;location;lat;lon;timestamp;P1;durP1;ratioP1;P2;durP2;ratioP2
57832;SDS011;43667;53.036;6.740;2023-03-12T00:01:22;10.82;;;5.18;;
57832;SDS011;43667;53.036;6.740;2023-03-12T00:03:49;8.10;;;5.07;;
57832;SDS011;43667;53.036;6.740;2023-03-12T00:06:16;6.82;;;5.07;;
57832;SDS011;43667;53.036;6.740;2023-03-12T00:08:42;9.13;;;4.97;;
57832;SDS011;43667;53.036;6.740;2023-03-12T00:11:12;7.28;;;5.15;;
57832;SDS011;43667;53.036;6.740;2023-03-12T00:13:40;8.88;;;5.15;;
57832;SDS011;43667;53.036;6.740;2023-03-12T00:16:15;10.90;;;5.30;;
57832;SDS011;43667;53.036;6.740;2023-03-12T00:18:41;10.38;;;5.47;;
57832;SDS011;43667;53.036;6.740;2023-03-12T00:21:07;11.75;;;5.82;;
57832;SDS011;43667;53.036;6.740;2023-03-12T00:23:33;9.70;;;5.70;;
57832;SDS011;43667;53.036;6.740;2023-03-12T00:26:00;10.60;;;5.82;;
57832;SDS011;43667;53.036;6.740;2023-03-12T00:28:30;8.52;;;5.22;;
57832;SDS011;43667;53.036;6.740;2023-03-12T00:30:56;9.88;;;5.35;;
57832;SDS011;43667;53.036;6.740;2023-03-12T00:33:23;11.48;;;5.68;;
57832;SDS011;43667;53.036;6.740;2023-03-12T00:35:49;9.23;;;5.85;;
57832;SDS011;43667;53.036;6.740;2023-03-12T00:38:15;12.32;;;6.20;;
57832;SDS011;43667;53.036;6.740;2023-03-12T00:40:41;10.50;;;6.10;;
57832;SDS011;43667;53.036;6.740;2023-03-12T00:43:06;10.10;;;6.60;;
57832;SDS011;43667;53.036;6.740;2023-03-12T00:45:32;11.63;;;6.47;;
57832;SDS011;43667;53.036;6.740;2023-03-12T00:47:57;11.30;;;6.55;;
57832;SDS011;43667;53.036;6.740;2023-03-12T00:50:23;16.02;;;6.70;;
57832;SDS011;43667;53.036;6.740;2023-03-12T00:52:49;17.35;;;7.50;;
57832;SDS011;43667;53.036;6.740;2023-03-12T00:55:14;9.93;;;5.82;;
57832;SDS011;43667;53.036;6.740;2023-03-12T00:57:40;12.35;;;6.63;;
57832;SDS011;43667;53.036;6.740;2023-03-12T01:00:06;10.68;;;6.95;;
57832;SDS011;43667;53.036;6.740;2023-03-12T01:02:34;15.38;;;6.75;;
57832;SDS011;43667;53.036;6.740;2023-03-12T01:07:47;14.50;;;7.15;;
57832;SDS011;43667;53.036;6.740;2023-03-12T01:10:13;15.27;;;6.97;;
57832;SDS011;43667;53.036;6.740;2023-03-12T01:12:40;15.15;;;7.25;;
57832;SDS011;43667;53.036;6.740;2023-03-12T01:15:06;13.68;;;7.63;;
57832;SDS011;43667;53.036;6.740;2023-03-12T01:17:32;11.77;;;6.97;;
57832;SDS011;43667;53.036;6.740;2023-03-12T01:19:57;9.85;;;7.00;;
57832;SDS011;43667;53.036;6.740;2023-03-12T01:22:23;16.95;;;7.28;;
57832;SDS011;43667;53.036;6.740;2023-03-12T01:24:49;16.77;;;7.25;;
57832;SDS011;43667;53.036;6.740;2023-03-12T01:27:14;10.10;;;6.75;;
57832;SDS011;43667;53.036;6.740;2023-03-12T01:29:40;11.73;;;7.38;;
57832;SDS011;43667;53.036;6.740;2023-03-12T01:32:06;15.85;;;6.88;;
57832;SDS011;43667;53.036;6.740;2023-03-12T01:34:31;10.63;;;7.03;;
57832;SDS011;43667;53.036;6.740;2023-03-12T01:36:59;13.50;;;7.13;;
57832;SDS011;43667;53.036;6.740;2023-03-12T01:39:25;13.57;;;6.25;;
57832;SDS011;43667;53.036;6.740;2023-03-12T01:41:50;13.75;;;7.30;;
57832;SDS011;43667;53.036;6.740;2023-03-12T01:44:16;13.45;;;7.38;;
57832;SDS011;43667;53.036;6.740;2023-03-12T01:46:42;19.73;;;7.68;;
57832;SDS011;43667;53.036;6.740;2023-03-12T01:54:32;13.57;;;7.07;;
57832;SDS011;43667;53.036;6.740;2023-03-12T01:57:05;13.52;;;6.70;;
57832;SDS011;43667;53.036;6.740;2023-03-12T01:59:46;14.05;;;6.25;;
57832;SDS011;43667;53.036;6.740;2023-03-12T02:02:16;12.57;;;6.65;;
57832;SDS011;43667;53.036;6.740;2023-03-12T02:04:47;10.93;;;6.43;;
57832;SDS011;43667;53.036;6.740;2023-03-12T02:07:16;11.70;;;6.22;;
57832;SDS011;43667;53.036;6.740;2023-03-12T02:09:46;12.40;;;7.20;;
57832;SDS011;43667;53.036;6.740;2023-03-12T02:12:13;10.98;;;6.97;;
57832;SDS011;43667;53.036;6.740;2023-03-12T02:14:40;13.77;;;7.45;;
57832;SDS011;43667;53.036;6.740;2023-03-12T02:17:06;12.85;;;7.13;;
57832;SDS011;43667;53.036;6.740;2023-03-12T02:22:32;12.85;;;6.85;;
57832;SDS011;43667;53.036;6.740;2023-03-12T02:28:12;11.85;;;6.78;;
57832;SDS011;43667;53.036;6.740;2023-03-12T02:30:40;11.02;;;6.25;;
57832;SDS011;43667;53.036;6.740;2023-03-12T02:33:08;12.80;;;6.93;;
57832;SDS011;43667;53.036;6.740;2023-03-12T02:35:35;14.98;;;7.15;;
57832;SDS011;43667;53.036;6.740;2023-03-12T02:38:01;15.77;;;6.90;;
57832;SDS011;43667;53.036;6.740;2023-03-12T02:40:28;16.00;;;6.32;;
57832;SDS011;43667;53.036;6.740;2023-03-12T02:42:58;16.63;;;7.30;;
57832;SDS011;43667;53.036;6.740;2023-03-12T02:45:26;9.23;;;6.65;;
57832;SDS011;43667;53.036;6.740;2023-03-12T02:47:53;15.95;;;6.55;;
57832;SDS011;43667;53.036;6.740;2023-03-12T02:50:19;8.77;;;6.10;;
57832;SDS011;43667;53.036;6.740;2023-03-12T02:52:45;11.60;;;6.55;;
57832;SDS011;43667;53.036;6.740;2023-03-12T02:55:10;13.15;;;7.07;;
57832;SDS011;43667;53.036;6.740;2023-03-12T02:57:36;13.38;;;6.20;;
57832;SDS011;43667;53.036;6.740;2023-03-12T03:00:06;12.00;;;6.30;;
57832;SDS011;43667;53.036;6.740;2023-03-12T03:02:36;10.02;;;6.10;;
57832;SDS011;43667;53.036;6.740;2023-03-12T03:05:02;12.15;;;5.68;;
57832;SDS011;43667;53.036;6.740;2023-03-12T03:07:28;8.32;;;5.38;;
57832;SDS011;43667;53.036;6.740;2023-03-12T03:09:53;11.63;;;5.95;;
57832;SDS011;43667;53.036;6.740;2023-03-12T03:12:19;9.70;;;5.30;;
57832;SDS011;43667;53.036;6.740;2023-03-12T03:14:45;12.50;;;5.38;;
57832;SDS011;43667;53.036;6.740;2023-03-12T03:17:10;9.55;;;5.05;;
57832;SDS011;43667;53.036;6.740;2023-03-12T03:19:36;8.35;;;4.93;;
57832;SDS011;43667;53.036;6.740;2023-03-12T03:22:02;10.13;;;5.22;;
57832;SDS011;43667;53.036;6.740;2023-03-12T03:24:27;8.18;;;5.32;;
57832;SDS011;43667;53.036;6.740;2023-03-12T03:26:53;10.27;;;5.80;;
57832;SDS011;43667;53.036;6.740;2023-03-12T03:29:18;8.60;;;5.65;;
57832;SDS011;43667;53.036;6.740;2023-03-12T03:31:44;10.25;;;5.45;;
57832;SDS011;43667;53.036;6.740;2023-03-12T03:34:09;8.98;;;5.55;;
57832;SDS011;43667;53.036;6.740;2023-03-12T03:36:35;8.73;;;5.53;;
57832;SDS011;43667;53.036;6.740;2023-03-12T03:39:00;10.90;;;5.80;;
57832;SDS011;43667;53.036;6.740;2023-03-12T03:41:26;11.68;;;5.70;;
57832;SDS011;43667;53.036;6.740;2023-03-12T03:43:54;12.13;;;5.75;;
57832;SDS011;43667;53.036;6.740;2023-03-12T03:46:21;15.60;;;6.25;;
57832;SDS011;43667;53.036;6.740;2023-03-12T03:48:47;12.80;;;6.05;;
57832;SDS011;43667;53.036;6.740;2023-03-12T03:51:14;10.30;;;6.20;;
57832;SDS011;43667;53.036;6.740;2023-03-12T03:53:40;8.77;;;6.00;;
57832;SDS011;43667;53.036;6.740;2023-03-12T03:56:07;9.98;;;5.50;;
57832;SDS011;43667;53.036;6.740;2023-03-12T03:58:34;10.68;;;6.20;;
57832;SDS011;43667;53.036;6.740;2023-03-12T04:00:59;12.23;;;6.03;;
57832;SDS011;43667;53.036;6.740;2023-03-12T04:03:25;9.63;;;5.50;;
57832;SDS011;43667;53.036;6.740;2023-03-12T04:05:54;7.53;;;5.65;;
57832;SDS011;43667;53.036;6.740;2023-03-12T04:08:21;8.75;;;5.60;;
57832;SDS011;43667;53.036;6.740;2023-03-12T04:10:47;7.32;;;5.22;;
57832;SDS011;43667;53.036;6.740;2023-03-12T04:13:12;16.70;;;5.68;;
57832;SDS011;43667;53.036;6.740;2023-03-12T04:15:38;9.25;;;5.38;;
57832;SDS011;43667;53.036;6.740;2023-03-12T04:18:13;8.15;;;5.15;;
57832;SDS011;43667;53.036;6.740;2023-03-12T04:20:39;7.00;;;5.65;;
57832;SDS011;43667;53.036;6.740;2023-03-12T04:23:05;8.57;;;5.10;;
57832;SDS011;43667;53.036;6.740;2023-03-12T04:25:30;7.82;;;4.88;;
57832;SDS011;43667;53.036;6.740;2023-03-12T04:27:56;8.07;;;4.68;;
57832;SDS011;43667;53.036;6.740;2023-03-12T04:30:21;9.57;;;5.13;;
57832;SDS011;43667;53.036;6.740;2023-03-12T04:32:47;8.07;;;4.53;;
57832;SDS011;43667;53.036;6.740;2023-03-12T04:35:12;9.48;;;4.45;;
57832;SDS011;43667;53.036;6.740;2023-03-12T04:37:38;7.63;;;4.50;;
57832;SDS011;43667;53.036;6.740;2023-03-12T04:40:04;5.95;;;4.05;;
57832;SDS011;43667;53.036;6.740;2023-03-12T04:42:34;7.80;;;4.40;;
57832;SDS011;43667;53.036;6.740;2023-03-12T04:45:01;12.57;;;4.80;;
57832;SDS011;43667;53.036;6.740;2023-03-12T04:47:29;10.10;;;5.07;;
57832;SDS011;43667;53.036;6.740;2023-03-12T04:49:55;8.10;;;4.10;;
57832;SDS011;43667;53.036;6.740;2023-03-12T04:52:21;6.30;;;4.38;;
57832;SDS011;43667;53.036;6.740;2023-03-12T04:54:46;8.40;;;4.50;;
57832;SDS011;43667;53.036;6.740;2023-03-12T04:57:12;7.47;;;4.60;;
57832;SDS011;43667;53.036;6.740;2023-03-12T04:59:38;6.90;;;4.55;;
57832;SDS011;43667;53.036;6.740;2023-03-12T05:02:03;10.88;;;4.82;;
57832;SDS011;43667;53.036;6.740;2023-03-12T05:04:29;9.55;;;4.45;;
57832;SDS011;43667;53.036;6.740;2023-03-12T05:06:55;12.05;;;4.55;;
57832;SDS011;43667;53.036;6.740;2023-03-12T05:09:20;8.27;;;4.93;;
57832;SDS011;43667;53.036;6.740;2023-03-12T05:11:46;8.00;;;4.70;;
57832;SDS011;43667;53.036;6.740;2023-03-12T05:14:12;10.45;;;4.85;;
57832;SDS011;43667;53.036;6.740;2023-03-12T05:16:37;8.48;;;4.60;;
57832;SDS011;43667;53.036;6.740;2023-03-12T05:19:03;10.98;;;5.40;;
57832;SDS011;43667;53.036;6.740;2023-03-12T05:21:29;12.18;;;4.80;;
57832;SDS011;43667;53.036;6.740;2023-03-12T05:23:55;10.27;;;4.90;;
57832;SDS011;43667;53.036;6.740;2023-03-12T05:26:22;8.10;;;5.40;;
57832;SDS011;43667;53.036;6.740;2023-03-12T05:28:50;6.47;;;5.15;;
57832;SDS011;43667;53.036;6.740;2023-03-12T05:31:16;12.02;;;5.65;;
57832;SDS011;43667;53.036;6.740;2023-03-12T05:33:43;11.23;;;5.05;;
57832;SDS011;43667;53.036;6.740;2023-03-12T05:36:09;10.38;;;5.38;;
57832;SDS011;43667;53.036;6.740;2023-03-12T05:38:35;11.45;;;5.28;;
57832;SDS011;43667;53.036;6.740;2023-03-12T05:41:01;11.43;;;6.28;;
57832;SDS011;43667;53.036;6.740;2023-03-12T05:43:28;9.35;;;5.10;;
57832;SDS011;43667;53.036;6.740;2023-03-12T05:45:56;13.60;;;7.10;;
57832;SDS011;43667;53.036;6.740;2023-03-12T05:48:23;9.63;;;5.15;;
57832;SDS011;43667;53.036;6.740;2023-03-12T05:50:49;10.27;;;5.00;;
57832;SDS011;43667;53.036;6.740;2023-03-12T05:53:15;9.70;;;5.32;;
57832;SDS011;43667;53.036;6.740;2023-03-12T05:55:40;9.25;;;5.28;;
57832;SDS011;43667;53.036;6.740;2023-03-12T05:58:06;9.25;;;5.10;;
57832;SDS011;43667;53.036;6.740;2023-03-12T06:00:33;10.02;;;4.93;;
57832;SDS011;43667;53.036;6.740;2023-03-12T06:03:06;11.15;;;5.22;;
57832;SDS011;43667;53.036;6.740;2023-03-12T06:05:33;12.23;;;5.15;;
57832;SDS011;43667;53.036;6.740;2023-03-12T06:07:59;10.05;;;4.93;;
57832;SDS011;43667;53.036;6.740;2023-03-12T06:10:25;12.55;;;5.60;;
57832;SDS011;43667;53.036;6.740;2023-03-12T06:12:51;10.10;;;4.75;;
57832;SDS011;43667;53.036;6.740;2023-03-12T06:15:16;9.65;;;5.50;;
57832;SDS011;43667;53.036;6.740;2023-03-12T06:17:42;11.82;;;5.75;;
57832;SDS011;43667;53.036;6.740;2023-03-12T06:20:08;9.25;;;4.93;;
57832;SDS011;43667;53.036;6.740;2023-03-12T06:22:34;8.75;;;5.78;;
57832;SDS011;43667;53.036;6.740;2023-03-12T06:25:00;11.65;;;5.35;;
57832;SDS011;43667;53.036;6.740;2023-03-12T06:27:25;10.77;;;5.53;;
57832;SDS011;43667;53.036;6.740;2023-03-12T06:29:51;8.57;;;5.53;;
57832;SDS011;43667;53.036;6.740;2023-03-12T06:32:17;10.63;;;5.68;;
57832;SDS011;43667;53.036;6.740;2023-03-12T06:34:43;10.48;;;5.70;;
57832;SDS011;43667;53.036;6.740;2023-03-12T06:37:09;14.93;;;6.63;;
57832;SDS011;43667;53.036;6.740;2023-03-12T06:39:35;11.35;;;6.20;;
57832;SDS011;43667;53.036;6.740;2023-03-12T06:42:01;15.98;;;6.00;;
57832;SDS011;43667;53.036;6.740;2023-03-12T06:44:27;12.48;;;5.93;;
57832;SDS011;43667;53.036;6.740;2023-03-12T06:46:53;9.77;;;5.88;;
57832;SDS011;43667;53.036;6.740;2023-03-12T06:49:18;13.23;;;6.40;;
57832;SDS011;43667;53.036;6.740;2023-03-12T06:51:44;10.60;;;6.90;;
57832;SDS011;43667;53.036;6.740;2023-03-12T06:54:10;9.07;;;5.72;;
57832;SDS011;43667;53.036;6.740;2023-03-12T06:56:35;12.35;;;6.90;;
57832;SDS011;43667;53.036;6.740;2023-03-12T06:59:02;9.88;;;6.03;;
57832;SDS011;43667;53.036;6.740;2023-03-12T07:01:28;9.32;;;5.53;;
57832;SDS011;43667;53.036;6.740;2023-03-12T07:03:53;12.23;;;7.75;;
57832;SDS011;43667;53.036;6.740;2023-03-12T07:06:20;13.93;;;6.32;;
57832;SDS011;43667;53.036;6.740;2023-03-12T07:08:47;12.15;;;6.53;;
57832;SDS011;43667;53.036;6.740;2023-03-12T07:11:12;10.20;;;5.32;;
57832;SDS011;43667;53.036;6.740;2023-03-12T07:13:39;11.50;;;5.60;;
57832;SDS011;43667;53.036;6.740;2023-03-12T07:16:05;15.43;;;5.78;;
57832;SDS011;43667;53.036;6.740;2023-03-12T07:18:31;12.43;;;5.32;;
57832;SDS011;43667;53.036;6.740;2023-03-12T07:20:57;16.67;;;6.05;;
57832;SDS011;43667;53.036;6.740;2023-03-12T07:23:23;9.98;;;5.50;;
57832;SDS011;43667;53.036;6.740;2023-03-12T07:25:49;10.07;;;5.78;;
57832;SDS011;43667;53.036;6.740;2023-03-12T07:28:15;7.70;;;5.35;;
57832;SDS011;43667;53.036;6.740;2023-03-12T07:30:41;14.30;;;6.00;;
57832;SDS011;43667;53.036;6.740;2023-03-12T07:33:14;12.00;;;6.13;;
57832;SDS011;43667;53.036;6.740;2023-03-12T07:35:40;9.80;;;5.95;;
57832;SDS011;43667;53.036;6.740;2023-03-12T07:38:06;10.60;;;6.45;;
57832;SDS011;43667;53.036;6.740;2023-03-12T07:40:32;12.32;;;6.47;;
57832;SDS011;43667;53.036;6.740;2023-03-12T07:42:58;15.20;;;8.15;;
57832;SDS011;43667;53.036;6.740;2023-03-12T07:45:23;11.05;;;6.93;;
57832;SDS011;43667;53.036;6.740;2023-03-12T07:47:49;13.65;;;7.85;;
57832;SDS011;43667;53.036;6.740;2023-03-12T07:50:16;12.60;;;7.68;;
57832;SDS011;43667;53.036;6.740;2023-03-12T07:52:42;12.77;;;8.18;;
57832;SDS011;43667;53.036;6.740;2023-03-12T07:55:08;15.85;;;8.48;;
57832;SDS011;43667;53.036;6.740;2023-03-12T07:57:35;11.85;;;8.00;;
57832;SDS011;43667;53.036;6.740;2023-03-12T08:00:01;14.73;;;9.25;;
57832;SDS011;43667;53.036;6.740;2023-03-12T08:02:29;13.13;;;8.25;;
57832;SDS011;43667;53.036;6.740;2023-03-12T08:04:54;16.27;;;8.55;;
57832;SDS011;43667;53.036;6.740;2023-03-12T08:07:20;14.73;;;8.65;;
57832;SDS011;43667;53.036;6.740;2023-03-12T08:09:45;13.88;;;8.55;;
57832;SDS011;43667;53.036;6.740;2023-03-12T08:12:13;10.10;;;8.93;;
57832;SDS011;43667;53.036;6.740;2023-03-12T08:14:38;13.77;;;9.80;;
57832;SDS011;43667;53.036;6.740;2023-03-12T08:17:04;18.33;;;12.30;;
57832;SDS011;43667;53.036;6.740;2023-03-12T08:19:30;17.73;;;13.50;;
57832;SDS011;43667;53.036;6.740;2023-03-12T08:21:55;13.38;;;10.82;;
57832;SDS011;43667;53.036;6.740;2023-03-12T08:24:22;16.90;;;10.23;;
57832;SDS011;43667;53.036;6.740;2023-03-12T08:26:48;16.27;;;10.70;;
57832;SDS011;43667;53.036;6.740;2023-03-12T08:29:14;16.30;;;10.52;;
57832;SDS011;43667;53.036;6.740;2023-03-12T08:31:40;13.88;;;10.60;;
57832;SDS011;43667;53.036;6.740;2023-03-12T08:34:06;14.13;;;9.35;;
57832;SDS011;43667;53.036;6.740;2023-03-12T08:36:32;15.82;;;8.30;;
57832;SDS011;43667;53.036;6.740;2023-03-12T08:38:57;14.68;;;8.55;;
57832;SDS011;43667;53.036;6.740;2023-03-12T08:41:23;14.50;;;8.75;;
57832;SDS011;43667;53.036;6.740;2023-03-12T08:43:49;14.82;;;8.18;;
57832;SDS011;43667;53.036;6.740;2023-03-12T08:46:14;15.38;;;11.10;;
57832;SDS011;43667;53.036;6.740;2023-03-12T08:48:40;14.30;;;10.00;;
57832;SDS011;43667;53.036;6.740;2023-03-12T08:51:06;11.52;;;8.25;;
57832;SDS011;43667;53.036;6.740;2023-03-12T08:53:33;15.63;;;9.18;;
57832;SDS011;43667;53.036;6.740;2023-03-12T08:56:00;11.98;;;8.38;;
57832;SDS011;43667;53.036;6.740;2023-03-12T08:58:26;12.75;;;8.40;;
57832;SDS011;43667;53.036;6.740;2023-03-12T09:00:53;12.27;;;7.07;;
57832;SDS011;43667;53.036;6.740;2023-03-12T09:03:19;14.98;;;7.32;;
57832;SDS011;43667;53.036;6.740;2023-03-12T09:05:45;9.40;;;6.85;;
57832;SDS011;43667;53.036;6.740;2023-03-12T09:08:13;8.50;;;6.88;;
57832;SDS011;43667;53.036;6.740;2023-03-12T09:10:39;12.25;;;6.90;;
57832;SDS011;43667;53.036;6.740;2023-03-12T09:13:10;10.88;;;7.43;;
57832;SDS011;43667;53.036;6.740;2023-03-12T09:15:36;14.13;;;7.10;;
57832;SDS011;43667;53.036;6.740;2023-03-12T09:18:02;14.02;;;7.85;;
57832;SDS011;43667;53.036;6.740;2023-03-12T09:20:27;11.25;;;8.18;;
57832;SDS011;43667;53.036;6.740;2023-03-12T09:22:53;10.98;;;7.72;;
57832;SDS011;43667;53.036;6.740;2023-03-12T09:25:18;11.05;;;8.18;;
57832;SDS011;43667;53.036;6.740;2023-03-12T09:27:46;11.48;;;8.85;;
57832;SDS011;43667;53.036;6.740;2023-03-12T09:30:13;14.50;;;9.30;;
57832;SDS011;43667;53.036;6.740;2023-03-12T09:32:40;10.23;;;8.40;;
57832;SDS011;43667;53.036;6.740;2023-03-12T09:35:08;13.05;;;9.00;;
57832;SDS011;43667;53.036;6.740;2023-03-12T09:37:34;12.40;;;8.73;;
57832;SDS011;43667;53.036;6.740;2023-03-12T09:39:59;14.95;;;10.38;;
57832;SDS011;43667;53.036;6.740;2023-03-12T09:42:31;11.77;;;9.75;;
57832;SDS011;43667;53.036;6.740;2023-03-12T09:45:10;13.77;;;10.23;;
57832;SDS011;43667;53.036;6.740;2023-03-12T09:47:42;14.00;;;10.35;;
57832;SDS011;43667;53.036;6.740;2023-03-12T09:55:42;13.98;;;10.82;;
57832;SDS011;43667;53.036;6.740;2023-03-12T09:58:12;15.55;;;11.20;;
57832;SDS011;43667;53.036;6.740;2023-03-12T10:00:41;16.77;;;12.32;;
57832;SDS011;43667;53.036;6.740;2023-03-12T10:03:08;14.40;;;12.25;;
57832;SDS011;43667;53.036;6.740;2023-03-12T10:08:32;19.23;;;16.20;;
57832;SDS011;43667;53.036;6.740;2023-03-12T10:22:20;22.83;;;20.50;;
57832;SDS011;43667;53.036;6.740;2023-03-12T10:25:14;23.92;;;21.42;;
57832;SDS011;43667;53.036;6.740;2023-03-12T10:27:51;24.48;;;21.88;;
57832;SDS011;43667;53.036;6.740;2023-03-12T10:30:21;22.98;;;20.60;;
57832;SDS011;43667;53.036;6.740;2023-03-12T10:32:50;25.25;;;22.65;;
57832;SDS011;43667;53.036;6.740;2023-03-12T10:35:21;25.38;;;22.67;;
57832;SDS011;43667;53.036;6.740;2023-03-12T10:37:50;25.38;;;21.90;;
57832;SDS011;43667;53.036;6.740;2023-03-12T10:40:21;26.80;;;21.88;;
57832;SDS011;43667;53.036;6.740;2023-03-12T10:42:52;25.58;;;22.92;;
57832;SDS011;43667;53.036;6.740;2023-03-12T10:48:06;26.50;;;22.17;;
57832;SDS011;43667;53.036;6.740;2023-03-12T10:50:36;23.45;;;21.13;;
57832;SDS011;43667;53.036;6.740;2023-03-12T10:55:58;24.90;;;21.35;;
57832;SDS011;43667;53.036;6.740;2023-03-12T11:01:05;23.38;;;20.95;;
57832;SDS011;43667;53.036;6.740;2023-03-12T11:03:43;25.13;;;21.58;;
57832;SDS011;43667;53.036;6.740;2023-03-12T11:06:19;22.55;;;20.15;;
57832;SDS011;43667;53.036;6.740;2023-03-12T11:11:44;24.00;;;21.23;;
57832;SDS011;43667;53.036;6.740;2023-03-12T11:16:43;24.67;;;22.05;;
57832;SDS011;43667;53.036;6.740;2023-03-12T11:19:11;24.08;;;20.55;;
57832;SDS011;43667;53.036;6.740;2023-03-12T11:21:38;25.27;;;20.70;;
57832;SDS011;43667;53.036;6.740;2023-03-12T11:24:09;24.60;;;20.40;;
57832;SDS011;43667;53.036;6.740;2023-03-12T11:26:38;23.05;;;20.65;;
57832;SDS011;43667;53.036;6.740;2023-03-12T11:29:23;23.50;;;21.00;;
57832;SDS011;43667;53.036;6.740;2023-03-12T11:32:13;26.40;;;21.17;;
57832;SDS011;43667;53.036;6.740;2023-03-12T11:34:39;25.98;;;20.42;;
57832;SDS011;43667;53.036;6.740;2023-03-12T11:37:07;23.75;;;20.70;;
57832;SDS011;43667;53.036;6.740;2023-03-12T11:45:20;25.13;;;21.60;;
57832;SDS011;43667;53.036;6.740;2023-03-12T11:51:00;23.10;;;20.30;;
57832;SDS011;43667;53.036;6.740;2023-03-12T11:56:18;24.90;;;19.65;;
57832;SDS011;43667;53.036;6.740;2023-03-12T11:58:52;25.83;;;20.60;;
57832;SDS011;43667;53.036;6.740;2023-03-12T12:07:07;20.92;;;18.65;;
57832;SDS011;43667;53.036;6.740;2023-03-12T12:12:20;21.27;;;18.55;;
57832;SDS011;43667;53.036;6.740;2023-03-12T12:15:53;20.58;;;18.38;;
57832;SDS011;43667;53.036;6.740;2023-03-12T12:21:06;18.45;;;16.13;;
57832;SDS011;43667;53.036;6.740;2023-03-12T12:26:57;22.65;;;17.35;;
57832;SDS011;43667;53.036;6.740;2023-03-12T12:29:47;19.00;;;16.05;;
57832;SDS011;43667;53.036;6.740;2023-03-12T12:32:23;20.00;;;16.02;;
57832;SDS011;43667;53.036;6.740;2023-03-12T12:35:34;19.73;;;16.08;;
57832;SDS011;43667;53.036;6.740;2023-03-12T12:38:08;19.35;;;15.73;;
57832;SDS011;43667;53.036;6.740;2023-03-12T12:40:50;24.80;;;16.63;;
57832;SDS011;43667;53.036;6.740;2023-03-12T12:43:27;20.17;;;16.83;;
57832;SDS011;43667;53.036;6.740;2023-03-12T12:45:58;22.85;;;17.60;;
57832;SDS011;43667;53.036;6.740;2023-03-12T12:48:40;25.27;;;18.48;;
57832;SDS011;43667;53.036;6.740;2023-03-12T12:51:10;21.45;;;17.80;;
57832;SDS011;43667;53.036;6.740;2023-03-12T12:53:42;27.42;;;18.80;;
57832;SDS011;43667;53.036;6.740;2023-03-12T13:01:34;25.45;;;18.83;;
57832;SDS011;43667;53.036;6.740;2023-03-12T13:04:08;24.33;;;18.52;;
57832;SDS011;43667;53.036;6.740;2023-03-12T13:09:49;26.95;;;20.60;;
57832;SDS011;43667;53.036;6.740;2023-03-12T13:12:30;27.38;;;19.35;;
57832;SDS011;43667;53.036;6.740;2023-03-12T13:26:44;27.30;;;18.92;;
57832;SDS011;43667;53.036;6.740;2023-03-12T13:29:38;22.75;;;17.33;;
57832;SDS011;43667;53.036;6.740;2023-03-12T13:32:35;22.95;;;18.60;;
57832;SDS011;43667;53.036;6.740;2023-03-12T13:37:47;22.00;;;17.17;;
57832;SDS011;43667;53.036;6.740;2023-03-12T13:43:08;21.63;;;15.25;;
57832;SDS011;43667;53.036;6.740;2023-03-12T13:48:25;19.35;;;14.38;;
57832;SDS011;43667;53.036;6.740;2023-03-12T13:50:58;18.48;;;13.57;;
57832;SDS011;43667;53.036;6.740;2023-03-12T13:53:34;16.98;;;13.40;;
57832;SDS011;43667;53.036;6.740;2023-03-12T13:56:03;16.70;;;13.45;;
57832;SDS011;43667;53.036;6.740;2023-03-12T13:58:37;21.13;;;12.65;;
57832;SDS011;43667;53.036;6.740;2023-03-12T14:01:26;20.60;;;12.17;;
57832;SDS011;43667;53.036;6.740;2023-03-12T14:04:00;18.48;;;11.55;;
57832;SDS011;43667;53.036;6.740;2023-03-12T14:06:29;20.23;;;12.68;;
57832;SDS011;43667;53.036;6.740;2023-03-12T14:12:04;20.52;;;12.43;;
57832;SDS011;43667;53.036;6.740;2023-03-12T14:14:50;22.15;;;12.93;;
57832;SDS011;43667;53.036;6.740;2023-03-12T14:17:19;20.38;;;12.95;;
57832;SDS011;43667;53.036;6.740;2023-03-12T14:22:36;22.65;;;12.40;;
57832;SDS011;43667;53.036;6.740;2023-03-12T14:25:05;22.83;;;12.50;;
57832;SDS011;43667;53.036;6.740;2023-03-12T14:27:38;27.35;;;14.25;;
57832;SDS011;43667;53.036;6.740;2023-03-12T14:32:37;29.30;;;13.57;;
57832;SDS011;43667;53.036;6.740;2023-03-12T14:35:18;34.17;;;12.73;;
57832;SDS011;43667;53.036;6.740;2023-03-12T14:37:50;37.97;;;14.13;;
57832;SDS011;43667;53.036;6.740;2023-03-12T14:40:35;38.90;;;12.48;;
57832;SDS011;43667;53.036;6.740;2023-03-12T14:43:22;34.08;;;11.68;;
57832;SDS011;43667;53.036;6.740;2023-03-12T14:45:48;33.65;;;12.18;;
57832;SDS011;43667;53.036;6.740;2023-03-12T14:48:19;41.75;;;14.25;;
57832;SDS011;43667;53.036;6.740;2023-03-12T14:50:46;37.85;;;13.25;;
57832;SDS011;43667;53.036;6.740;2023-03-12T14:55:57;47.65;;;14.43;;
57832;SDS011;43667;53.036;6.740;2023-03-12T14:58:46;49.90;;;14.10;;
57832;SDS011;43667;53.036;6.740;2023-03-12T15:01:15;44.35;;;13.85;;
57832;SDS011;43667;53.036;6.740;2023-03-12T15:03:45;57.83;;;15.68;;
57832;SDS011;43667;53.036;6.740;2023-03-12T15:06:17;42.67;;;12.80;;
57832;SDS011;43667;53.036;6.740;2023-03-12T15:08:48;46.65;;;12.98;;
57832;SDS011;43667;53.036;6.740;2023-03-12T15:11:18;48.05;;;13.18;;
57832;SDS011;43667;53.036;6.740;2023-03-12T15:13:45;48.20;;;13.93;;
57832;SDS011;43667;53.036;6.740;2023-03-12T15:16:11;46.13;;;12.63;;
57832;SDS011;43667;53.036;6.740;2023-03-12T15:18:37;44.08;;;12.55;;
57832;SDS011;43667;53.036;6.740;2023-03-12T15:21:03;41.15;;;11.52;;
57832;SDS011;43667;53.036;6.740;2023-03-12T15:23:29;42.10;;;11.77;;
57832;SDS011;43667;53.036;6.740;2023-03-12T15:31:53;40.03;;;10.73;;
57832;SDS011;43667;53.036;6.740;2023-03-12T15:34:36;48.65;;;10.65;;
57832;SDS011;43667;53.036;6.740;2023-03-12T15:37:18;49.72;;;11.30;;
57832;SDS011;43667;53.036;6.740;2023-03-12T15:39:47;41.67;;;10.02;;
57832;SDS011;43667;53.036;6.740;2023-03-12T15:42:16;45.45;;;11.15;;
57832;SDS011;43667;53.036;6.740;2023-03-12T15:44:55;60.38;;;14.18;;
57832;SDS011;43667;53.036;6.740;2023-03-12T15:47:23;42.22;;;11.30;;
57832;SDS011;43667;53.036;6.740;2023-03-12T15:49:55;53.83;;;11.13;;
57832;SDS011;43667;53.036;6.740;2023-03-12T15:52:32;50.28;;;12.27;;
57832;SDS011;43667;53.036;6.740;2023-03-12T15:55:00;51.85;;;11.75;;
57832;SDS011;43667;53.036;6.740;2023-03-12T15:57:29;59.75;;;11.05;;
57832;SDS011;43667;53.036;6.740;2023-03-12T16:02:36;49.72;;;11.05;;
57832;SDS011;43667;53.036;6.740;2023-03-12T16:05:03;50.95;;;10.52;;
57832;SDS011;43667;53.036;6.740;2023-03-12T16:07:29;56.78;;;10.90;;
57832;SDS011;43667;53.036;6.740;2023-03-12T16:09:55;54.33;;;11.65;;
57832;SDS011;43667;53.036;6.740;2023-03-12T16:12:21;43.20;;;10.90;;
57832;SDS011;43667;53.036;6.740;2023-03-12T16:14:47;58.58;;;12.35;;
57832;SDS011;43667;53.036;6.740;2023-03-12T16:17:13;62.38;;;11.98;;
57832;SDS011;43667;53.036;6.740;2023-03-12T16:19:41;57.05;;;10.38;;
57832;SDS011;43667;53.036;6.740;2023-03-12T16:22:07;46.53;;;10.40;;
57832;SDS011;43667;53.036;6.740;2023-03-12T16:24:33;50.92;;;9.77;;
57832;SDS011;43667;53.036;6.740;2023-03-12T16:26:58;44.83;;;10.02;;
57832;SDS011;43667;53.036;6.740;2023-03-12T16:29:26;48.33;;;8.95;;
57832;SDS011;43667;53.036;6.740;2023-03-12T16:31:57;49.70;;;9.48;;
57832;SDS011;43667;53.036;6.740;2023-03-12T16:34:30;48.17;;;9.23;;
57832;SDS011;43667;53.036;6.740;2023-03-12T16:36:56;54.65;;;9.93;;
57832;SDS011;43667;53.036;6.740;2023-03-12T16:39:21;46.15;;;8.32;;
57832;SDS011;43667;53.036;6.740;2023-03-12T16:41:47;53.17;;;9.07;;
57832;SDS011;43667;53.036;6.740;2023-03-12T16:44:14;50.30;;;8.70;;